Time;durP1;ratioP1;P1;durP2;ratioP2;P2;SDS_P1;SDS_P2;PMS_P1;PMS_P2;Temp;Humidity;BMP_temperature;BMP_pressure;BME280_temperature;BME280_humidity;BME280_pressure;Samples;Min_cycle;Max_cycle;Signal;HPM_P1;HPM_P2
2023/04/17 00:01:48;;;;;;;29.80;26.63;;;14.40;94.70;;;;;;5056236;28;20025;-60
2023/04/17 00:04:14;;;;;;;34.60;27.70;;;14.40;94.70;;;;;;5056128;28;20025;-60
2023/04/17 00:06:43;;;;;;;33.22;27.48;;;14.40;94.80;;;;;;5055222;28;20028;-56
2023/04/17 00:09:09;;;;;;;30.77;26.83;;;14.40;94.80;;;;;;5054848;28;20106;-58
2023/04/17 00:11:35;;;;;;;34.63;28.20;;;14.40;94.80;;;;;;5055991;28;20087;-56
2023/04/17 00:14:00;;;;;;;30.38;27.23;;;14.40;94.80;;;;;;5055883;28;20184;-51
2023/04/17 00:16:26;;;;;;;35.55;29.20;;;14.30;94.90;;;;;;5055770;28;20033;-60
2023/04/17 00:18:55;;;;;;;37.75;29.52;;;14.40;94.70;;;;;;5055502;28;20075;-54
2023/04/17 00:21:21;;;;;;;34.10;29.15;;;14.50;94.60;;;;;;5055471;28;20021;-58
2023/04/17 00:23:47;;;;;;;32.30;28.77;;;14.40;94.80;;;;;;5055029;28;20107;-61
2023/04/17 00:26:12;;;;;;;33.95;28.73;;;14.30;94.90;;;;;;5055891;28;20450;-60
2023/04/17 00:28:38;;;;;;;31.95;28.52;;;14.40;94.80;;;;;;5055715;28;20112;-55
2023/04/17 00:31:04;;;;;;;36.78;29.70;;;14.30;94.90;;;;;;5055709;28;20024;-65
2023/04/17 00:33:31;;;;;;;36.20;30.35;;;14.40;94.80;;;;;;5055457;28;20541;-64
2023/04/17 00:35:56;;;;;;;36.38;30.08;;;14.30;94.90;;;;;;5055583;28;20074;-57
2023/04/17 00:38:22;;;;;;;37.70;31.27;;;14.30;95.00;;;;;;5054760;28;20111;-61
2023/04/17 00:40:47;;;;;;;39.53;30.65;;;14.30;95.00;;;;;;5055348;28;20029;-56
2023/04/17 00:43:13;;;;;;;37.13;33.08;;;14.30;95.10;;;;;;5055428;28;20036;-60
2023/04/17 00:45:40;;;;;;;38.40;32.42;;;14.30;95.10;;;;;;5054655;28;20029;-61
2023/04/17 00:48:08;;;;;;;41.88;32.65;;;14.30;95.10;;;;;;5055156;28;20025;-60
2023/04/17 00:50:34;;;;;;;36.30;32.00;;;14.30;95.10;;;;;;5055115;28;20402;-58
2023/04/17 00:53:00;;;;;;;37.70;31.95;;;14.30;95.10;;;;;;5054872;28;20021;-62
2023/04/17 00:55:27;;;;;;;36.17;31.27;;;14.30;95.10;;;;;;5054595;28;20091;-60
2023/04/17 00:57:55;;;;;;;35.88;30.15;;;14.20;95.10;;;;;;5054859;28;20040;-63
2023/04/17 01:00:20;;;;;;;40.60;32.78;;;14.30;95.10;;;;;;5054884;28;20021;-53
2023/04/17 01:02:46;;;;;;;36.75;30.20;;;14.40;94.90;;;;;;5055143;28;20029;-60
2023/04/17 01:05:12;;;;;;;35.85;29.00;;;14.30;95.00;;;;;;5055020;28;20029;-54
2023/04/17 01:07:40;;;;;;;40.88;32.40;;;14.30;95.10;;;;;;5054966;28;20029;-62
2023/04/17 01:10:06;;;;;;;38.22;30.75;;;14.30;95.10;;;;;;5055017;28;20100;-60
2023/04/17 01:12:32;;;;;;;38.92;31.00;;;14.20;95.20;;;;;;5055013;28;20021;-58
2023/04/17 01:14:58;;;;;;;38.80;30.48;;;14.30;95.10;;;;;;5054688;28;20139;-61
2023/04/17 01:17:27;;;;;;;35.15;29.02;;;14.20;95.30;;;;;;5054627;28;20037;-59
2023/04/17 01:19:53;;;;;;;37.58;29.70;;;14.20;95.40;;;;;;5054791;28;20028;-57
2023/04/17 01:22:19;;;;;;;36.20;29.33;;;14.20;95.30;;;;;;5054357;28;20063;-58
2023/04/17 01:24:45;;;;;;;37.65;29.05;;;14.20;95.40;;;;;;5054731;28;20078;-53
2023/04/17 01:27:12;;;;;;;35.05;29.08;;;14.20;95.30;;;;;;5054552;28;20017;-62
2023/04/17 01:29:38;;;;;;;39.50;27.08;;;14.30;95.20;;;;;;5054411;28;20025;-56
2023/04/17 01:32:04;;;;;;;39.00;29.17;;;14.20;95.30;;;;;;5054671;28;20021;-53
2023/04/17 01:34:30;;;;;;;33.88;26.65;;;14.20;95.50;;;;;;5054347;28;20047;-60
2023/04/17 01:36:55;;;;;;;35.88;28.05;;;14.20;95.30;;;;;;5053566;28;20048;-59
2023/04/17 01:39:21;;;;;;;39.47;27.77;;;14.20;95.30;;;;;;5036466;28;20386;-60
2023/04/17 01:41:47;;;;;;;38.90;28.23;;;14.10;95.30;;;;;;5054367;28;20364;-56
2023/04/17 01:44:12;;;;;;;37.50;28.00;;;14.10;95.30;;;;;;5054234;28;20021;-57
2023/04/17 01:46:38;;;;;;;38.38;28.73;;;14.20;95.30;;;;;;5053884;28;20128;-59
2023/04/17 01:49:04;;;;;;;38.85;27.52;;;14.10;95.30;;;;;;5054108;28;20043;-58
2023/04/17 01:51:30;;;;;;;38.63;29.75;;;14.10;95.40;;;;;;5053774;28;20112;-55
2023/04/17 01:53:55;;;;;;;38.95;29.63;;;14.10;95.30;;;;;;5054274;28;20061;-59
2023/04/17 01:56:21;;;;;;;41.38;29.45;;;14.10;95.50;;;;;;5054012;28;20032;-61
2023/04/17 01:58:47;;;;;;;38.65;29.50;;;14.10;95.40;;;;;;5053787;28;20035;-59
2023/04/17 02:01:12;;;;;;;43.30;29.35;;;14.10;95.30;;;;;;5053847;28;20028;-61
2023/04/17 02:03:38;;;;;;;37.60;28.05;;;14.00;95.50;;;;;;5053938;28;20363;-58
2023/04/17 02:06:04;;;;;;;35.45;27.05;;;14.10;95.50;;;;;;5053124;28;20033;-54
2023/04/17 02:08:29;;;;;;;33.55;26.50;;;14.00;95.60;;;;;;5053425;28;20124;-56
2023/04/17 02:10:55;;;;;;;34.35;27.27;;;14.10;95.50;;;;;;5053832;28;20489;-61
2023/04/17 02:13:20;;;;;;;38.63;28.67;;;14.10;95.50;;;;;;5053658;28;20036;-55
2023/04/17 02:15:46;;;;;;;37.03;28.63;;;14.00;95.60;;;;;;5053383;28;20025;-58
2023/04/17 02:18:12;;;;;;;37.20;27.70;;;14.00;95.60;;;;;;5053496;28;20498;-60
2023/04/17 02:20:38;;;;;;;40.03;30.17;;;14.00;95.60;;;;;;5053039;28;20024;-64
2023/04/17 02:23:05;;;;;;;32.95;27.92;;;14.00;95.50;;;;;;5053800;28;20021;-53
2023/04/17 02:25:31;;;;;;;43.22;30.92;;;14.00;95.50;;;;;;5053379;28;20025;-60
2023/04/17 02:27:56;;;;;;;37.83;30.10;;;14.00;95.50;;;;;;5053400;28;20024;-61
2023/04/17 02:30:23;;;;;;;37.65;28.90;;;14.00;95.60;;;;;;5053185;28;20079;-58
2023/04/17 02:32:53;;;;;;;42.17;30.35;;;14.00;95.60;;;;;;5035436;28;20067;-58
2023/04/17 02:35:23;;;;;;;41.35;32.03;;;14.00;95.60;;;;;;5052773;28;20028;-61
2023/04/17 02:37:49;;;;;;;41.28;32.47;;;14.00;95.60;;;;;;5053134;28;20045;-61
2023/04/17 02:40:15;;;;;;;42.58;31.92;;;14.00;95.60;;;;;;5053097;28;20021;-58
2023/04/17 02:42:41;;;;;;;41.03;30.20;;;14.00;95.50;;;;;;5052670;28;20025;-64
2023/04/17 02:45:07;;;;;;;39.33;30.77;;;14.00;95.50;;;;;;5053128;28;20032;-61
2023/04/17 02:47:32;;;;;;;39.90;29.95;;;14.00;95.60;;;;;;5053315;28;20355;-58
2023/04/17 02:49:59;;;;;;;39.17;29.90;;;13.90;95.70;;;;;;5052950;28;20024;-58
2023/04/17 02:52:26;;;;;;;38.88;29.92;;;14.00;95.60;;;;;;5052937;28;20458;-64
2023/04/17 02:54:51;;;;;;;37.40;30.17;;;14.00;95.50;;;;;;5053062;28;20031;-61
2023/04/17 02:57:17;;;;;;;38.78;30.42;;;14.00;95.50;;;;;;5052670;28;20382;-60
2023/04/17 02:59:42;;;;;;;40.83;29.92;;;13.90;95.60;;;;;;5052829;28;20029;-56
2023/04/17 03:02:08;;;;;;;41.92;31.73;;;13.90;95.60;;;;;;5052724;28;20028;-61
2023/04/17 03:04:34;;;;;;;39.72;29.25;;;14.00;95.60;;;;;;5052537;28;20063;-52
2023/04/17 03:07:00;;;;;;;39.10;30.38;;;13.90;95.60;;;;;;5052613;28;20047;-53
2023/04/17 03:09:26;;;;;;;39.72;30.80;;;14.00;95.50;;;;;;5052824;28;20355;-56
2023/04/17 03:11:51;;;;;;;42.97;32.38;;;14.00;95.50;;;;;;5052919;28;20033;-60
2023/04/17 03:14:17;;;;;;;43.45;32.17;;;14.00;95.50;;;;;;5052716;28;20032;-59
2023/04/17 03:16:43;;;;;;;42.38;31.77;;;14.00;95.30;;;;;;5052491;28;20029;-58
2023/04/17 03:19:08;;;;;;;38.88;30.33;;;13.90;95.40;;;;;;5052005;28;20075;-62
2023/04/17 03:21:34;;;;;;;41.08;31.20;;;13.90;95.50;;;;;;5052677;28;20036;-60
2023/04/17 03:23:59;;;;;;;42.67;32.60;;;13.90;95.00;;;;;;5052669;28;20486;-58
2023/04/17 03:26:25;;;;;;;42.65;32.55;;;13.90;95.00;;;;;;5052603;28;20025;-61
2023/04/17 03:28:50;;;;;;;47.35;34.25;;;13.80;95.30;;;;;;5052329;28;20021;-58
2023/04/17 03:31:16;;;;;;;43.03;33.75;;;13.80;95.10;;;;;;5052202;28;20029;-65
2023/04/17 03:33:42;;;;;;;42.90;34.58;;;13.80;95.10;;;;;;5051592;28;20075;-63
2023/04/17 03:36:07;;;;;;;43.75;34.95;;;13.80;95.30;;;;;;5052400;28;20029;-59
2023/04/17 03:38:34;;;;;;;48.22;36.17;;;13.70;95.40;;;;;;5052257;28;20064;-64
2023/04/17 03:41:00;;;;;;;47.15;35.78;;;13.80;95.30;;;;;;5051590;28;20445;-64
2023/04/17 03:43:26;;;;;;;47.15;36.65;;;13.70;95.30;;;;;;5052144;28;20049;-56
2023/04/17 03:45:51;;;;;;;43.25;34.72;;;13.70;95.30;;;;;;5052329;28;20467;-65
2023/04/17 03:48:17;;;;;;;47.70;36.42;;;13.70;95.70;;;;;;5051977;28;20113;-60
2023/04/17 03:50:43;;;;;;;48.03;35.72;;;13.70;95.30;;;;;;5052327;28;20500;-62
2023/04/17 03:53:08;;;;;;;48.38;37.00;;;13.70;95.50;;;;;;5052405;28;20049;-57
2023/04/17 03:55:34;;;;;;;42.08;33.55;;;13.80;95.40;;;;;;5052565;28;20029;-56
2023/04/17 03:58:00;;;;;;;49.03;38.03;;;13.70;95.60;;;;;;5051808;28;20112;-62
2023/04/17 04:00:26;;;;;;;50.47;37.00;;;13.70;95.50;;;;;;5052210;28;20029;-64
2023/04/17 04:02:52;;;;;;;49.35;38.63;;;13.80;95.30;;;;;;5052615;28;20386;-62
2023/04/17 04:05:17;;;;;;;51.15;38.20;;;13.70;95.40;;;;;;5052252;28;20051;-58
2023/04/17 04:07:43;;;;;;;54.42;39.10;;;13.70;95.40;;;;;;5051934;28;20032;-58
2023/04/17 04:10:09;;;;;;;49.92;38.50;;;13.70;95.50;;;;;;5052216;28;20104;-61
2023/04/17 04:12:35;;;;;;;51.35;39.47;;;13.70;95.60;;;;;;5034099;28;20056;-60
2023/04/17 04:15:00;;;;;;;51.22;38.63;;;13.70;95.60;;;;;;5052006;28;20041;-62
2023/04/17 04:17:26;;;;;;;52.47;40.58;;;13.70;95.70;;;;;;5051527;28;20114;-62
2023/04/17 04:19:51;;;;;;;52.00;38.97;;;13.70;95.60;;;;;;5051988;28;20071;-62
2023/04/17 04:22:17;;;;;;;59.35;40.03;;;13.70;95.60;;;;;;5052146;28;20033;-62
2023/04/17 04:24:43;;;;;;;57.72;42.95;;;13.70;95.70;;;;;;5051342;28;20123;-62
2023/04/17 04:27:09;;;;;;;49.15;40.40;;;13.70;95.60;;;;;;5052009;28;20025;-62
2023/04/17 04:29:36;;;;;;;60.97;43.13;;;13.60;95.80;;;;;;5051878;28;20071;-57
2023/04/17 04:32:02;;;;;;;54.83;40.10;;;13.60;95.70;;;;;;5055578;28;20422;-59
2023/04/17 04:34:28;;;;;;;51.47;39.72;;;13.70;95.70;;;;;;5055631;28;20021;-55
2023/04/17 04:36:55;;;;;;;57.70;42.53;;;13.60;95.80;;;;;;5055258;28;20048;-61
2023/04/17 04:39:20;;;;;;;53.60;40.17;;;13.70;95.80;;;;;;5055318;28;20522;-61
2023/04/17 04:41:48;;;;;;;54.63;41.20;;;13.70;95.80;;;;;;5055486;28;20104;-60
2023/04/17 04:44:17;;;;;;;51.25;38.33;;;13.60;96.00;;;;;;5054873;28;20040;-62
2023/04/17 04:46:43;;;;;;;51.35;39.28;;;13.60;95.90;;;;;;5052249;28;20029;-60
2023/04/17 04:49:09;;;;;;;54.42;38.60;;;13.70;95.70;;;;;;5047746;28;20032;-56
2023/04/17 04:51:35;;;;;;;47.38;35.72;;;13.70;95.60;;;;;;5054287;28;20017;-60
2023/04/17 04:54:01;;;;;;;44.05;33.00;;;13.70;95.70;;;;;;5053015;28;20033;-63
2023/04/17 04:56:27;;;;;;;46.85;33.50;;;13.60;95.80;;;;;;5053026;28;20050;-62
2023/04/17 04:58:54;;;;;;;37.83;29.33;;;13.60;96.00;;;;;;5036047;28;20080;-59
2023/04/17 05:01:19;;;;;;;42.85;30.83;;;13.60;96.10;;;;;;5048303;28;20034;-61
2023/04/17 05:03:45;;;;;;;38.95;29.77;;;13.70;96.10;;;;;;5046469;28;20021;-57
2023/04/17 05:06:12;;;;;;;39.20;30.75;;;13.70;95.80;;;;;;5045890;28;20029;-61
2023/04/17 05:08:38;;;;;;;39.55;29.70;;;13.60;96.00;;;;;;5050713;28;20446;-63
2023/04/17 05:11:04;;;;;;;38.70;29.38;;;13.60;96.10;;;;;;5035731;28;20482;-63
2023/04/17 05:13:30;;;;;;;41.22;30.17;;;13.60;96.20;;;;;;5054209;28;20028;-62
2023/04/17 05:15:55;;;;;;;41.25;30.80;;;13.60;96.10;;;;;;5051688;28;20029;-66
2023/04/17 05:18:21;;;;;;;45.63;31.15;;;13.50;96.20;;;;;;5043435;28;20067;-65
2023/04/17 05:20:47;;;;;;;41.38;29.17;;;13.60;96.10;;;;;;5045941;28;20382;-65
2023/04/17 05:23:12;;;;;;;43.67;33.40;;;13.70;96.10;;;;;;5045228;28;20104;-65
2023/04/17 05:25:39;;;;;;;37.08;29.00;;;13.70;95.80;;;;;;5034248;28;20056;-66
2023/04/17 05:28:06;;;;;;;40.92;29.85;;;13.70;96.00;;;;;;5030916;28;20035;-64
2023/04/17 05:30:32;;;;;;;44.78;31.95;;;13.60;96.10;;;;;;5037864;28;20033;-65
2023/04/17 05:32:59;;;;;;;41.60;30.65;;;13.60;96.10;;;;;;5040002;28;20075;-66
2023/04/17 05:35:26;;;;;;;47.78;32.42;;;13.60;96.10;;;;;;5046993;28;20066;-65
2023/04/17 05:37:52;;;;;;;41.72;31.58;;;13.60;96.10;;;;;;5035584;28;20160;-63
2023/04/17 05:40:17;;;;;;;43.60;32.42;;;13.70;96.00;;;;;;5039581;28;20112;-66
2023/04/17 05:42:43;;;;;;;39.50;30.40;;;13.60;96.00;;;;;;5043100;28;20112;-64
2023/04/17 05:45:13;;;;;;;42.03;30.27;;;13.60;96.00;;;;;;5036855;28;20024;-59
2023/04/17 05:47:38;;;;;;;31.60;25.15;;;13.60;96.10;;;;;;5036363;28;20062;-64
2023/04/17 05:50:05;;;;;;;33.35;26.05;;;13.70;96.70;;;;;;5036644;28;20026;-61
2023/04/17 05:52:31;;;;;;;30.52;25.20;;;13.70;96.60;;;;;;5034326;28;20033;-64
2023/04/17 05:54:56;;;;;;;31.25;24.50;;;13.80;96.60;;;;;;5032900;28;20229;-63
2023/04/17 05:57:22;;;;;;;33.33;25.10;;;13.90;96.50;;;;;;5047772;28;20049;-62
2023/04/17 05:59:50;;;;;;;35.70;26.75;;;13.90;96.50;;;;;;5039135;28;20020;-64
2023/04/17 06:02:16;;;;;;;26.88;22.92;;;14.10;96.30;;;;;;5039047;28;20115;-66
2023/04/17 06:04:42;;;;;;;32.95;24.10;;;14.00;96.60;;;;;;5050624;28;20028;-64
2023/04/17 06:07:09;;;;;;;26.45;20.80;;;14.10;96.50;;;;;;5043445;28;20029;-66
2023/04/17 06:09:35;;;;;;;24.38;20.77;;;14.10;96.60;;;;;;5046560;28;20018;-60
2023/04/17 06:12:01;;;;;;;27.70;23.08;;;14.20;96.50;;;;;;5042390;28;20494;-65
2023/04/17 06:14:27;;;;;;;23.00;17.23;;;14.30;96.20;;;;;;5036610;28;20482;-66
2023/04/17 06:16:52;;;;;;;24.92;20.75;;;14.40;96.50;;;;;;5037394;28;20044;-64
2023/04/17 06:19:18;;;;;;;28.27;20.05;;;14.50;96.00;;;;;;5040725;28;20026;-65
2023/04/17 06:21:44;;;;;;;24.65;18.45;;;14.60;96.00;;;;;;5031697;28;20025;-63
2023/04/17 06:24:09;;;;;;;31.80;19.20;;;14.60;95.70;;;;;;5031015;28;20470;-69
2023/04/17 06:26:35;;;;;;;22.80;18.08;;;14.70;95.80;;;;;;5032649;28;20056;-67
2023/04/17 06:29:01;;;;;;;21.75;18.48;;;14.70;96.00;;;;;;5052316;28;20021;-67
2023/04/17 06:31:26;;;;;;;30.02;17.67;;;14.70;95.60;;;;;;5041984;28;20029;-64
2023/04/17 06:33:52;;;;;;;27.17;17.45;;;14.70;95.50;;;;;;5052494;28;20071;-63
2023/04/17 06:36:17;;;;;;;26.93;17.17;;;14.80;95.50;;;;;;5052115;28;20029;-65
2023/04/17 06:38:44;;;;;;;22.45;16.85;;;14.70;95.60;;;;;;5044211;28;20154;-63
2023/04/17 06:41:09;;;;;;;21.15;15.93;;;14.70;95.60;;;;;;5052687;28;20108;-61
2023/04/17 06:43:35;;;;;;;22.55;15.40;;;14.80;95.30;;;;;;5052874;28;20017;-62
2023/04/17 06:46:01;;;;;;;20.13;15.25;;;14.80;95.60;;;;;;5049769;28;20030;-65
2023/04/17 06:48:26;;;;;;;23.15;15.48;;;14.70;95.40;;;;;;5037070;28;20475;-64
2023/04/17 06:50:52;;;;;;;22.33;15.68;;;14.70;95.60;;;;;;5041145;28;20080;-61
2023/04/17 06:53:17;;;;;;;16.63;13.45;;;14.80;95.70;;;;;;5033169;28;20025;-62
2023/04/17 06:55:43;;;;;;;24.38;15.85;;;14.80;95.70;;;;;;5032620;28;20021;-64
2023/04/17 06:58:09;;;;;;;20.83;14.77;;;14.90;95.20;;;;;;5032382;28;20410;-64
2023/04/17 07:00:35;;;;;;;16.70;13.32;;;14.80;95.20;;;;;;5048845;28;20013;-64
2023/04/17 07:03:01;;;;;;;18.58;13.55;;;14.90;95.50;;;;;;5052285;28;20036;-64
2023/04/17 07:05:26;;;;;;;18.95;13.45;;;14.90;95.60;;;;;;5052917;28;20117;-61
2023/04/17 07:07:54;;;;;;;20.70;14.52;;;15.00;95.30;;;;;;5049810;28;20533;-63
2023/04/17 07:10:19;;;;;;;18.27;15.00;;;15.00;95.10;;;;;;5034563;28;20029;-64
2023/04/17 07:12:45;;;;;;;20.83;14.32;;;15.00;95.10;;;;;;5046676;28;20104;-63
2023/04/17 07:15:11;;;;;;;20.05;15.50;;;15.00;95.30;;;;;;5032680;28;20052;-63
2023/04/17 07:17:36;;;;;;;21.60;15.60;;;15.00;95.10;;;;;;5032748;28;20494;-63
2023/04/17 07:20:04;;;;;;;18.35;14.23;;;15.00;94.90;;;;;;5032963;28;20037;-64
2023/04/17 07:22:30;;;;;;;21.45;14.82;;;15.10;94.80;;;;;;5032517;28;20033;-66
2023/04/17 07:24:56;;;;;;;19.13;14.68;;;15.00;94.90;;;;;;5016044;28;20033;-63
2023/04/17 07:27:21;;;;;;;24.23;16.67;;;14.90;94.90;;;;;;5048546;28;20434;-63
2023/04/17 07:29:53;;;;;;;19.55;14.95;;;14.90;95.30;;;;;;5032329;28;20047;-64
2023/04/17 07:32:19;;;;;;;19.45;15.05;;;14.90;95.00;;;;;;5044342;28;20029;-64
2023/04/17 07:34:45;;;;;;;18.30;14.60;;;14.90;95.20;;;;;;5052433;28;20378;-65
2023/04/17 07:37:10;;;;;;;21.48;16.33;;;15.00;95.90;;;;;;5051780;28;20033;-66
2023/04/17 07:39:36;;;;;;;20.25;15.73;;;15.00;95.50;;;;;;5046212;28;20033;-61
2023/04/17 07:42:05;;;;;;;21.38;16.92;;;15.00;95.10;;;;;;5032205;28;20083;-63
2023/04/17 07:44:31;;;;;;;19.23;12.38;;;14.90;95.20;;;;;;5042286;28;20067;-65
2023/04/17 07:46:57;;;;;;;22.45;16.13;;;15.00;96.40;;;;;;5027482;28;20037;-65
2023/04/17 07:49:22;;;;;;;27.00;20.05;;;15.00;95.60;;;;;;5031596;28;20083;-64
2023/04/17 07:51:48;;;;;;;25.00;21.10;;;15.00;95.20;;;;;;5032431;28;20057;-63
2023/04/17 07:54:13;;;;;;;26.02;19.77;;;15.00;95.20;;;;;;5047879;28;20013;-58
2023/04/17 07:56:39;;;;;;;22.50;19.17;;;15.00;95.20;;;;;;5051592;28;20424;-56
2023/04/17 07:59:05;;;;;;;20.08;17.52;;;15.00;95.20;;;;;;5052134;28;20028;-59
2023/04/17 08:01:32;;;;;;;25.00;17.83;;;14.90;95.60;;;;;;5052323;28;20024;-62
2023/04/17 08:03:58;;;;;;;24.83;20.40;;;14.90;95.50;;;;;;5048953;28;20029;-64
2023/04/17 08:06:24;;;;;;;19.77;17.67;;;14.90;95.30;;;;;;5050535;28;20032;-64
2023/04/17 08:08:50;;;;;;;24.85;20.05;;;15.00;95.30;;;;;;5045718;28;20029;-63
2023/04/17 08:11:15;;;;;;;23.20;20.67;;;14.80;96.70;;;;;;5055073;28;20025;-64
2023/04/17 08:13:41;;;;;;;27.52;21.77;;;14.70;97.70;;;;;;5038655;28;20120;-64
2023/04/17 08:16:07;;;;;;;24.00;21.60;;;14.60;97.60;;;;;;5035862;28;20030;-64
2023/04/17 08:18:36;;;;;;;27.63;23.52;;;14.60;97.40;;;;;;5036105;28;20440;-64
2023/04/17 08:21:02;;;;;;;27.33;22.60;;;14.60;98.20;;;;;;5019991;28;20471;-64
2023/04/17 08:23:28;;;;;;;27.92;22.40;;;14.70;97.30;;;;;;5039209;28;20470;-64
2023/04/17 08:25:54;;;;;;;26.88;21.73;;;14.80;95.40;;;;;;5037369;28;20029;-64
2023/04/17 08:28:20;;;;;;;26.20;23.38;;;14.90;95.00;;;;;;5038487;28;20103;-64
2023/04/17 08:30:45;;;;;;;30.77;22.52;;;14.90;94.90;;;;;;5034035;28;20026;-64
2023/04/17 08:33:12;;;;;;;29.38;24.25;;;14.90;94.80;;;;;;5035915;28;20021;-63
2023/04/17 08:35:37;;;;;;;32.97;23.45;;;14.90;94.90;;;;;;5035222;28;20030;-52
2023/04/17 08:38:03;;;;;;;26.67;23.02;;;14.90;94.90;;;;;;5035018;28;20050;-65
2023/04/17 08:40:29;;;;;;;29.70;24.50;;;14.90;94.80;;;;;;5035660;28;20022;-65
2023/04/17 08:42:54;;;;;;;27.80;23.27;;;14.90;94.80;;;;;;5034754;28;20108;-65
2023/04/17 08:45:23;;;;;;;27.90;25.00;;;14.90;95.00;;;;;;5035265;28;20017;-64
2023/04/17 08:47:48;;;;;;;27.40;23.40;;;14.90;95.10;;;;;;5035104;28;20032;-64
2023/04/17 08:50:17;;;;;;;27.25;22.42;;;14.80;95.00;;;;;;5035256;28;20030;-62
2023/04/17 08:52:48;;;;;;;30.67;23.17;;;14.90;95.10;;;;;;5022458;28;20096;-64
2023/04/17 08:55:19;;;;;;;30.73;27.43;;;14.80;95.20;;;;;;5037275;28;20075;-65
2023/04/17 08:58:02;;;;;;;32.05;26.30;;;14.90;95.30;;;;;;5055020;28;20478;-64
2023/04/17 09:00:33;;;;;;;29.33;26.13;;;14.90;95.40;;;;;;5032992;28;20017;-65
2023/04/17 09:03:02;;;;;;;25.55;22.25;;;14.80;95.40;;;;;;5033722;28;20029;-65
2023/04/17 09:05:37;;;;;;;30.85;27.05;;;14.80;95.80;;;;;;5034414;28;20025;-65
2023/04/17 09:08:19;;;;;;;35.22;28.95;;;14.80;95.60;;;;;;5034138;28;20034;-65
2023/04/17 09:10:46;;;;;;;33.25;29.52;;;14.80;96.30;;;;;;5035177;28;20033;-64
2023/04/17 09:13:13;;;;;;;35.78;29.10;;;14.80;96.10;;;;;;5039802;28;20096;-61
2023/04/17 09:15:40;;;;;;;34.35;28.88;;;14.80;95.60;;;;;;5037814;28;20493;-63
2023/04/17 09:18:23;;;;;;;31.42;28.10;;;14.80;95.70;;;;;;5053963;28;20426;-63
2023/04/17 09:20:50;;;;;;;35.72;28.45;;;14.80;95.70;;;;;;5051296;28;20455;-64
2023/04/17 09:23:16;;;;;;;34.97;30.02;;;14.80;95.50;;;;;;5046294;28;20076;-65
2023/04/17 09:25:42;;;;;;;36.90;29.73;;;14.90;95.40;;;;;;5038671;28;20100;-64
2023/04/17 09:28:12;;;;;;;35.25;29.70;;;14.90;95.40;;;;;;5053915;28;20116;-65
2023/04/17 09:30:40;;;;;;;33.40;27.58;;;14.90;95.30;;;;;;5053815;28;20111;-63
2023/04/17 09:33:07;;;;;;;32.13;28.42;;;14.90;95.20;;;;;;5053961;28;20462;-65
2023/04/17 09:35:34;;;;;;;29.90;26.70;;;14.90;95.50;;;;;;5053552;28;20056;-63
2023/04/17 09:38:00;;;;;;;31.52;25.73;;;14.90;95.80;;;;;;5050522;28;20402;-64
2023/04/17 09:40:29;;;;;;;32.05;26.85;;;14.90;96.20;;;;;;5037505;28;20112;-63
2023/04/17 09:43:00;;;;;;;30.40;26.73;;;14.90;95.70;;;;;;5049273;28;20032;-61
2023/04/17 09:45:34;;;;;;;29.30;25.00;;;14.90;95.90;;;;;;5033714;28;20029;-62
2023/04/17 09:48:00;;;;;;;32.53;27.27;;;14.90;96.30;;;;;;5033560;28;20389;-64
2023/04/17 09:50:26;;;;;;;30.67;27.42;;;14.90;96.30;;;;;;5039802;28;20385;-62
2023/04/17 09:52:53;;;;;;;31.65;28.35;;;15.00;96.00;;;;;;5044865;28;20025;-66
2023/04/17 09:55:21;;;;;;;30.75;27.55;;;15.00;95.70;;;;;;5044466;28;20022;-65
2023/04/17 09:57:53;;;;;;;32.90;29.58;;;15.00;96.10;;;;;;5034572;28;20120;-59
2023/04/17 10:00:20;;;;;;;32.83;29.30;;;15.00;96.00;;;;;;5033200;28;20466;-66
2023/04/17 10:02:50;;;;;;;35.17;31.58;;;14.90;97.30;;;;;;5051668;28;20056;-65
2023/04/17 10:05:17;;;;;;;32.72;29.25;;;15.10;96.80;;;;;;5053250;28;20044;-64
2023/04/17 10:07:43;;;;;;;36.88;32.40;;;15.10;97.10;;;;;;5046403;28;20037;-59
2023/04/17 10:10:09;;;;;;;35.92;30.90;;;15.10;96.70;;;;;;5035213;28;20529;-62
2023/04/17 10:12:37;;;;;;;34.65;30.83;;;15.10;97.70;;;;;;5033532;28;20029;-54
2023/04/17 10:15:06;;;;;;;33.55;29.25;;;15.10;98.00;;;;;;5033379;28;20050;-55
2023/04/17 10:17:33;;;;;;;32.88;29.35;;;15.10;98.60;;;;;;5039159;28;20060;-57
2023/04/17 10:20:16;;;;;;;32.05;28.67;;;15.30;97.40;;;;;;5044086;28;20419;-65
2023/04/17 10:22:48;;;;;;;26.33;23.70;;;15.40;97.00;;;;;;5041989;28;20390;-65
2023/04/17 10:25:13;;;;;;;28.35;25.25;;;15.40;98.30;;;;;;5045715;28;20470;-66
2023/04/17 10:27:39;;;;;;;24.23;21.67;;;15.50;97.70;;;;;;5041604;28;20037;-65
2023/04/17 10:30:09;;;;;;;23.08;20.70;;;15.50;98.50;;;;;;5032797;28;20131;-63
2023/04/17 10:32:35;;;;;;;24.95;20.88;;;15.50;99.70;;;;;;5043439;28;20078;-64
2023/04/17 10:35:21;;;;;;;24.23;21.63;;;15.50;99.30;;;;;;5034680;28;20100;-64
2023/04/17 10:37:47;;;;;;;24.33;20.08;;;15.60;99.40;;;;;;5033830;28;20454;-64
2023/04/17 10:40:23;;;;;;;28.02;20.38;;;15.60;98.80;;;;;;5050580;28;20029;-61
2023/04/17 10:43:16;;;;;;;23.70;20.98;;;15.70;99.90;;;;;;5023491;28;20379;-61
2023/04/17 10:46:11;;;;;;;24.52;21.80;;;15.80;97.80;;;;;;5034458;28;20037;-61
2023/04/17 10:48:51;;;;;;;23.92;19.38;;;15.80;97.90;;;;;;5033365;28;20482;-65
2023/04/17 10:51:22;;;;;;;20.20;18.05;;;15.80;99.10;;;;;;5033353;28;20053;-65
2023/04/17 10:54:02;;;;;;;22.33;20.05;;;15.90;99.90;;;;;;5040602;28;20033;-65
2023/04/17 10:56:37;;;;;;;26.33;22.30;;;15.80;99.00;;;;;;5033991;28;20116;-64
2023/04/17 10:59:10;;;;;;;22.00;19.65;;;15.90;99.40;;;;;;5033960;28;20116;-64
2023/04/17 11:01:36;;;;;;;20.60;18.20;;;15.90;99.00;;;;;;5042255;28;20029;-64
2023/04/17 11:04:03;;;;;;;24.42;21.92;;;15.90;99.70;;;;;;5052785;28;20028;-61
2023/04/17 11:06:36;;;;;;;25.90;22.60;;;16.00;97.90;;;;;;5049773;28;20033;-65
2023/04/17 11:09:05;;;;;;;20.38;18.27;;;16.00;97.90;;;;;;5051341;28;20036;-63
2023/04/17 11:11:44;;;;;;;27.23;24.63;;;15.90;99.80;;;;;;5050630;28;20013;-64
2023/04/17 11:14:14;;;;;;;25.33;22.52;;;16.00;98.10;;;;;;5050142;28;20099;-65
2023/04/17 11:16:42;;;;;;;24.65;22.17;;;16.00;97.90;;;;;;5046115;28;20087;-65
2023/04/17 11:19:15;;;;;;;23.25;20.67;;;15.90;97.50;;;;;;5051779;28;20065;-60
2023/04/17 11:21:42;;;;;;;22.88;20.38;;;16.00;98.60;;;;;;5052596;28;20480;-62
2023/04/17 11:24:08;;;;;;;27.23;24.33;;;16.00;98.10;;;;;;5036517;28;20105;-63
2023/04/17 11:26:46;;;;;;;27.15;24.10;;;16.00;97.10;;;;;;5051447;28;20120;-65
2023/04/17 11:29:15;;;;;;;24.35;21.85;;;16.10;95.80;;;;;;5050858;28;20033;-64
2023/04/17 11:31:41;;;;;;;26.95;24.05;;;16.00;97.00;;;;;;5034253;28;20028;-63
2023/04/17 11:34:08;;;;;;;26.50;23.67;;;16.00;95.50;;;;;;5036410;28;20124;-63
2023/04/17 11:36:34;;;;;;;27.55;24.00;;;16.00;95.70;;;;;;5044377;28;20033;-61
2023/04/17 11:38:59;;;;;;;28.45;25.55;;;16.10;95.10;;;;;;5053656;28;20040;-64
2023/04/17 11:41:38;;;;;;;30.05;23.15;;;16.00;95.00;;;;;;5054891;28;20159;-64
2023/04/17 11:44:07;;;;;;;26.35;23.13;;;16.00;95.30;;;;;;5048189;28;20079;-63
2023/04/17 11:46:33;;;;;;;25.67;22.80;;;16.00;95.40;;;;;;5055717;28;20025;-62
2023/04/17 11:48:59;;;;;;;24.40;21.77;;;16.00;94.80;;;;;;5057589;28;20090;-63
2023/04/17 11:51:25;;;;;;;29.08;24.10;;;16.00;94.90;;;;;;5058879;28;20028;-62
2023/04/17 11:53:51;;;;;;;26.70;23.95;;;16.10;93.50;;;;;;5057009;28;20036;-63
2023/04/17 11:56:18;;;;;;;23.48;20.58;;;16.00;93.60;;;;;;5058796;28;20024;-65
2023/04/17 11:58:52;;;;;;;24.63;22.23;;;16.00;91.30;;;;;;5058113;28;20086;-65
2023/04/17 12:01:19;;;;;;;26.05;21.88;;;16.10;91.10;;;;;;5058931;28;20362;-60
2023/04/17 12:03:46;;;;;;;23.25;20.25;;;16.10;91.30;;;;;;5038887;28;20355;-63
2023/04/17 12:06:12;;;;;;;22.88;19.38;;;16.00;91.80;;;;;;5049909;28;20394;-62
2023/04/17 12:08:50;;;;;;;23.38;19.15;;;16.10;90.60;;;;;;5057643;28;20018;-64
2023/04/17 12:11:24;;;;;;;21.65;18.90;;;16.10;91.40;;;;;;5057268;28;20036;-64
2023/04/17 12:13:51;;;;;;;20.65;18.55;;;16.10;90.50;;;;;;5058200;28;20029;-66
2023/04/17 12:16:17;;;;;;;20.48;18.35;;;16.00;91.30;;;;;;5058791;28;20025;-60
2023/04/17 12:18:44;;;;;;;19.90;17.80;;;16.10;90.50;;;;;;5058468;28;20044;-62
2023/04/17 12:21:10;;;;;;;23.38;20.88;;;16.10;90.40;;;;;;5059077;28;20158;-63
2023/04/17 12:23:36;;;;;;;19.40;16.63;;;16.10;91.20;;;;;;5058426;28;20485;-65
2023/04/17 12:26:01;;;;;;;21.38;18.42;;;16.10;91.80;;;;;;5053825;28;20106;-64
2023/04/17 12:28:28;;;;;;;22.40;19.17;;;16.20;90.80;;;;;;5057292;28;20029;-66